Time;durP1;ratioP1;P1;durP2;ratioP2;P2;SDS_P1;SDS_P2;PMS_P1;PMS_P2;Temp;Humidity;BMP_temperature;BMP_pressure;BME280_temperature;BME280_humidity;BME280_pressure;Samples;Min_cycle;Max_cycle;Signal;HPM_P1;HPM_P2
2023/03/23 00:00:23;;;;;;;;;;;;;;;12.31;55.25;95082.81;5088614;28;20432;-61
2023/03/23 00:02:48;;;;;;;;;;;;;;;12.24;56.33;95087.53;5086310;28;20334;-62
2023/03/23 00:05:14;;;;;;;;;;;;;;;12.49;55.32;95078.88;5088296;28;19977;-61
2023/03/23 00:07:45;;;;;;;;;;;;;;;12.67;54.55;95081.75;5088246;28;19931;-61
2023/03/23 00:10:10;;;;;;;;;;;;;;;12.65;54.08;95077.81;5088527;28;19932;-61
2023/03/23 00:12:36;;;;;;;;;;;;;;;12.71;54.05;95082.81;5087858;28;20018;-61
2023/03/23 00:15:06;;;;;;;;;;;;;;;12.52;53.98;95083.63;5097020;28;19920;-62
2023/03/23 00:17:35;;;;;;;;;;;;;;;12.45;53.80;95083.84;5091507;28;19924;-62
2023/03/23 00:20:04;;;;;;;;;;;;;;;12.45;53.67;95083.06;5091895;28;19924;-63
2023/03/23 00:22:29;;;;;;;;;;;;;;;12.16;53.84;95091.44;5090779;28;19924;-62
2023/03/23 00:24:55;;;;;;;;;;;;;;;12.15;54.04;95089.84;5091731;28;19926;-61
2023/03/23 00:27:21;;;;;;;;;;;;;;;12.24;53.70;95095.41;5090675;28;20010;-62
2023/03/23 00:29:53;;;;;;;;;;;;;;;12.45;52.82;95093.56;5091351;28;19924;-62
2023/03/23 00:32:20;;;;;;;;;;;;;;;12.47;52.47;95097.53;5078351;28;19924;-63
2023/03/23 00:34:48;;;;;;;;;;;;;;;12.47;52.23;95092.28;5091353;28;19931;-60
2023/03/23 00:37:16;;;;;;;;;;;;;;;12.55;51.90;95098.84;5090919;28;19924;-62
2023/03/23 00:39:44;;;;;;;;;;;;;;;12.48;52.10;95101.72;5091507;28;19920;-62
2023/03/23 00:42:10;;;;;;;;;;;;;;;12.42;52.39;95102.78;5090955;28;19977;-60
2023/03/23 00:44:36;;;;;;;;;;;;;;;12.48;51.91;95108.84;5072912;28;19951;-60
2023/03/23 00:47:02;;;;;;;;;;;;;;;12.52;51.59;95108.03;5106612;28;19955;-63
2023/03/23 00:49:30;;;;;;;;;;;;;;;12.52;51.05;95112.53;5090730;28;19929;-61
2023/03/23 00:51:57;;;;;;;;;;;;;;;12.50;51.56;95112.75;5090602;28;20022;-64
2023/03/23 00:54:24;;;;;;;;;;;;;;;12.58;50.86;95104.38;5091158;28;19924;-63
2023/03/23 00:56:49;;;;;;;;;;;;;;;12.65;50.66;95120.66;5088751;28;19924;-62
2023/03/23 00:59:15;;;;;;;;;;;;;;;12.58;51.41;95114.09;5089660;28;19927;-62
2023/03/23 01:01:40;;;;;;;;;;;;;;;12.72;51.37;95115.94;5090383;28;19963;-61
2023/03/23 01:04:08;;;;;;;;;;;;;;;12.73;51.32;95112.28;5106842;28;19924;-63
2023/03/23 01:06:38;;;;;;;;;;;;;;;12.40;52.32;95112.75;5090777;28;19931;-61
2023/03/23 01:09:04;;;;;;;;;;;;;;;12.42;52.69;95108.03;5089886;28;19924;-62
2023/03/23 01:11:30;;;;;;;;;;;;;;;12.29;53.21;95111.16;5088703;28;19927;-62
2023/03/23 01:13:57;;;;;;;;;;;;;;;12.05;53.95;95110.06;5089156;28;20283;-62
2023/03/23 01:16:23;;;;;;;;;;;;;;;11.82;54.59;95111.31;5090280;28;19924;-63
2023/03/23 01:18:49;;;;;;;;;;;;;;;11.74;55.35;95108.38;5072363;28;20032;-60
2023/03/23 01:21:17;;;;;;;;;;;;;;;11.34;57.04;95108.16;5090118;28;20355;-61
2023/03/23 01:23:44;;;;;;;;;;;;;;;11.37;57.29;95112.91;5090088;28;19928;-62
2023/03/23 01:26:11;;;;;;;;;;;;;;;11.52;56.88;95105.09;5090036;28;20458;-61
2023/03/23 01:28:37;;;;;;;;;;;;;;;11.45;57.27;95102.72;5090294;28;19923;-62
2023/03/23 01:31:05;;;;;;;;;;;;;;;11.16;57.78;95102.31;5090321;28;20669;-62
2023/03/23 01:33:31;;;;;;;;;;;;;;;11.18;58.03;95089.72;5088923;28;19920;-61
2023/03/23 01:35:57;;;;;;;;;;;;;;;11.13;57.80;95096.78;5106198;28;19971;-61
2023/03/23 01:38:22;;;;;;;;;;;;;;;11.08;58.30;95089.66;5090967;28;20015;-62
2023/03/23 01:40:48;;;;;;;;;;;;;;;11.14;58.46;95088.66;5090181;28;19920;-62
2023/03/23 01:43:15;;;;;;;;;;;;;;;11.74;56.88;95082.94;5106149;28;19931;-62
2023/03/23 01:45:42;;;;;;;;;;;;;;;11.75;56.79;95079.25;5088548;28;19924;-64
2023/03/23 01:48:21;;;;;;;;;;;;;;;11.13;57.60;95081.06;5088298;28;20372;-63
2023/03/23 01:50:58;;;;;;;;;;;;;;;11.85;56.54;95075.88;5089352;28;19928;-62
2023/03/23 01:53:28;;;;;;;;;;;;;;;11.89;56.53;95079.56;5088429;28;19927;-62
2023/03/23 01:55:55;;;;;;;;;;;;;;;11.90;56.46;95075.88;5088005;28;19934;-61
2023/03/23 01:58:25;;;;;;;;;;;;;;;11.53;57.29;95080.44;5088049;28;20314;-60
2023/03/23 02:00:53;;;;;;;;;;;;;;;11.97;56.34;95079.06;5087693;28;19923;-61
2023/03/23 02:03:20;;;;;;;;;;;;;;;12.35;55.06;95067.31;5088575;28;20019;-61
2023/03/23 02:05:50;;;;;;;;;;;;;;;12.64;54.49;95065.72;5072007;28;19924;-61
2023/03/23 02:08:26;;;;;;;;;;;;;;;12.43;54.78;95075.44;5088630;28;19970;-61
2023/03/23 02:10:52;;;;;;;;;;;;;;;12.45;54.58;95083.06;5089307;28;19927;-61
2023/03/23 02:13:18;;;;;;;;;;;;;;;12.50;53.95;95075.97;5088846;28;19943;-61
2023/03/23 02:16:04;;;;;;;;;;;;;;;12.61;53.67;95077.56;5088993;28;19932;-63
2023/03/23 02:18:49;;;;;;;;;;;;;;;12.55;53.75;95078.63;5064212;28;19924;-61
2023/03/23 02:21:27;;;;;;;;;;;;;;;12.74;52.67;95078.84;5089186;28;20028;-60
2023/03/23 02:24:13;;;;;;;;;;;;;;;12.79;52.73;95076.25;5103851;28;19945;-62
2023/03/23 02:26:46;;;;;;;;;;;;;;;12.79;52.04;95063.88;5086763;28;19923;-63
2023/03/23 02:29:18;;;;;;;;;;;;;;;12.72;52.21;95073.88;5089172;28;19931;-62
2023/03/23 02:31:44;;;;;;;;;;;;;;;12.71;51.91;95067.03;5088393;28;19967;-61
2023/03/23 02:34:24;;;;;;;;;;;;;;;12.70;52.23;95075.97;5087805;28;19975;-61
2023/03/23 02:36:53;;;;;;;;;;;;;;;12.55;52.07;95080.44;5104375;28;19930;-62
2023/03/23 02:39:29;;;;;;;;;;;;;;;12.41;51.59;95088.06;5088951;28;19920;-61
2023/03/23 02:42:01;;;;;;;;;;;;;;;12.23;51.68;95086.72;5088683;28;19924;-61
2023/03/23 02:44:29;;;;;;;;;;;;;;;12.11;51.82;95090.66;5093659;28;19963;-60
2023/03/23 02:46:56;;;;;;;;;;;;;;;11.88;52.02;95094.50;5087085;28;19927;-61
2023/03/23 02:49:24;;;;;;;;;;;;;;;11.89;51.57;95101.38;5089362;28;19920;-60
2023/03/23 02:51:50;;;;;;;;;;;;;;;11.87;51.73;95107.91;5087087;28;19927;-61
2023/03/23 02:54:18;;;;;;;;;;;;;;;11.86;51.52;95117.59;5071209;28;20777;-61
2023/03/23 02:56:44;;;;;;;;;;;;;;;11.86;51.34;95116.84;5087031;28;19932;-61
2023/03/23 02:59:19;;;;;;;;;;;;;;;11.94;50.89;95113.69;5087422;28;19966;-63
2023/03/23 03:02:03;;;;;;;;;;;;;;;11.91;51.07;95114.22;5087453;28;19981;-61
2023/03/23 03:04:31;;;;;;;;;;;;;;;11.68;50.83;95119.91;5104507;28;19924;-62
2023/03/23 03:07:04;;;;;;;;;;;;;;;11.39;51.69;95129.16;5087028;28;20268;-60
2023/03/23 03:09:42;;;;;;;;;;;;;;;11.31;51.86;95133.09;5087138;28;20333;-61
2023/03/23 03:12:12;;;;;;;;;;;;;;;11.47;51.37;95139.19;5087073;28;19920;-62
2023/03/23 03:14:41;;;;;;;;;;;;;;;11.27;51.54;95137.25;5076466;28;19927;-62
2023/03/23 03:17:17;;;;;;;;;;;;;;;11.05;51.94;95142.63;5086757;28;20350;-62
2023/03/23 03:19:45;;;;;;;;;;;;;;;10.81;51.97;95151.88;5088000;28;19920;-62
2023/03/23 03:22:12;;;;;;;;;;;;;;;11.19;51.41;95141.13;5088701;28;19924;-63
2023/03/23 03:24:40;;;;;;;;;;;;;;;11.18;51.40;95136.91;5089014;28;19923;-59
2023/03/23 03:27:11;;;;;;;;;;;;;;;10.97;52.00;95137.84;5087410;28;19920;-61
2023/03/23 03:29:50;;;;;;;;;;;;;;;10.96;51.89;95149.38;5087331;28;19924;-60
2023/03/23 03:32:19;;;;;;;;;;;;;;;10.85;51.84;95137.22;5090558;28;19924;-62
2023/03/23 03:34:47;;;;;;;;;;;;;;;10.74;52.72;95145.25;5070576;28;19924;-62
2023/03/23 03:37:15;;;;;;;;;;;;;;;10.77;52.80;95150.00;5099215;28;20349;-61
2023/03/23 03:39:41;;;;;;;;;;;;;;;11.04;52.34;95148.91;5104024;28;19930;-61
2023/03/23 03:42:06;;;;;;;;;;;;;;;10.93;52.63;95149.84;5086803;28;20306;-60
2023/03/23 03:44:33;;;;;;;;;;;;;;;11.11;52.17;95146.84;5087400;28;19959;-63
2023/03/23 03:46:58;;;;;;;;;;;;;;;11.30;51.67;95133.31;5086832;28;19990;-61
2023/03/23 03:49:25;;;;;;;;;;;;;;;11.36;51.75;95138.34;5089008;28;19920;-60
2023/03/23 03:51:53;;;;;;;;;;;;;;;11.30;51.91;95133.31;5092889;28;19928;-61
2023/03/23 03:54:23;;;;;;;;;;;;;;;11.36;51.95;95134.94;5090985;28;19924;-60
2023/03/23 03:56:51;;;;;;;;;;;;;;;11.36;51.49;95138.34;5090396;28;19920;-63
2023/03/23 03:59:37;;;;;;;;;;;;;;;11.33;51.81;95141.47;5091816;28;19924;-60
2023/03/23 04:02:21;;;;;;;;;;;;;;;11.35;51.79;95142.00;5092262;28;19980;-60
2023/03/23 04:04:53;;;;;;;;;;;;;;;11.29;51.77;95142.25;5091469;28;19927;-62
2023/03/23 04:07:29;;;;;;;;;;;;;;;11.20;51.82;95134.84;5095883;28;19935;-62
2023/03/23 04:09:55;;;;;;;;;;;;;;;11.16;52.32;95133.78;5090956;28;19932;-62
2023/03/23 04:12:21;;;;;;;;;;;;;;;11.27;51.47;95128.59;5091400;28;19927;-64
2023/03/23 04:14:55;;;;;;;;;;;;;;;11.30;51.58;95128.06;5092026;28;19927;-63
2023/03/23 04:17:28;;;;;;;;;;;;;;;11.26;51.88;95127.78;5107080;28;20032;-61
2023/03/23 04:19:58;;;;;;;;;;;;;;;11.19;51.85;95122.78;5107506;28;19924;-61
2023/03/23 04:22:29;;;;;;;;;;;;;;;11.35;52.69;95130.75;5106994;28;20382;-63
2023/03/23 04:24:58;;;;;;;;;;;;;;;11.43;53.12;95132.88;5090551;28;19928;-61
2023/03/23 04:27:27;;;;;;;;;;;;;;;11.42;53.29;95147.84;5091396;28;19927;-61
2023/03/23 04:29:57;;;;;;;;;;;;;;;11.45;53.10;95142.09;5090097;28;20069;-60
2023/03/23 04:32:30;;;;;;;;;;;;;;;11.44;53.03;95140.47;5091225;28;20393;-61
2023/03/23 04:34:57;;;;;;;;;;;;;;;11.54;52.58;95139.75;5088415;28;20050;-63
2023/03/23 04:37:33;;;;;;;;;;;;;;;11.47;52.28;95136.56;5089721;28;19959;-60
2023/03/23 04:40:10;;;;;;;;;;;;;;;11.60;51.82;95144.00;5089315;28;19920;-61
2023/03/23 04:42:38;;;;;;;;;;;;;;;11.51;52.39;95140.28;5089306;28;20379;-62
2023/03/23 04:45:22;;;;;;;;;;;;;;;11.56;52.93;95137.66;5080249;28;19931;-63
2023/03/23 04:47:57;;;;;;;;;;;;;;;11.48;53.11;95146.03;5089207;28;19968;-61
2023/03/23 04:50:34;;;;;;;;;;;;;;;11.36;53.06;95142.81;5089918;28;19927;-62
2023/03/23 04:53:09;;;;;;;;;;;;;;;11.37;53.31;95145.16;5089612;28;19924;-63
2023/03/23 04:55:36;;;;;;;;;;;;;;;11.67;53.42;95149.81;5100390;28;19930;-62
2023/03/23 04:58:03;;;;;;;;;;;;;;;11.67;53.28;95149.81;5092566;28;19927;-63
2023/03/23 05:00:35;;;;;;;;;;;;;;;11.53;53.76;95154.69;5087982;28;19952;-61
2023/03/23 05:03:02;;;;;;;;;;;;;;;11.66;54.12;95161.38;5082827;28;19924;-61
2023/03/23 05:05:30;;;;;;;;;;;;;;;11.93;52.73;95164.66;5088990;28;19959;-63
2023/03/23 05:07:57;;;;;;;;;;;;;;;11.95;52.47;95150.19;5087802;28;19967;-61
2023/03/23 05:10:26;;;;;;;;;;;;;;;12.12;52.33;95163.13;5085503;28;20634;-63
2023/03/23 05:12:55;;;;;;;;;;;;;;;12.13;52.39;95162.09;5087955;28;19936;-60
2023/03/23 05:15:20;;;;;;;;;;;;;;;11.81;53.43;95156.97;5090894;28;19920;-61
2023/03/23 05:17:48;;;;;;;;;;;;;;;11.37;54.24;95160.16;5090948;28;20015;-62
2023/03/23 05:20:20;;;;;;;;;;;;;;;11.83;53.23;95164.59;5088568;28;19920;-61
2023/03/23 05:22:57;;;;;;;;;;;;;;;12.02;53.08;95173.63;5087330;28;19927;-61
2023/03/23 05:25:28;;;;;;;;;;;;;;;12.35;52.37;95173.22;5088557;28;20009;-62
2023/03/23 05:28:04;;;;;;;;;;;;;;;12.14;52.68;95166.28;5087655;28;19927;-63
2023/03/23 05:30:52;;;;;;;;;;;;;;;11.86;53.21;95179.84;5089405;28;19920;-60
2023/03/23 05:33:19;;;;;;;;;;;;;;;12.11;53.06;95182.59;5072277;28;19927;-60
2023/03/23 05:36:04;;;;;;;;;;;;;;;11.96;53.41;95182.50;5088130;28;19970;-59
2023/03/23 05:38:39;;;;;;;;;;;;;;;12.25;52.50;95178.41;5105297;28;19927;-62
2023/03/23 05:41:06;;;;;;;;;;;;;;;12.26;54.12;95182.63;5071255;28;19977;-61
2023/03/23 05:43:37;;;;;;;;;;;;;;;12.54;52.91;95182.16;5076305;28;19947;-60
2023/03/23 05:46:14;;;;;;;;;;;;;;;12.43;54.08;95190.28;5094503;28;19924;-63
2023/03/23 05:48:40;;;;;;;;;;;;;;;12.52;53.91;95186.91;5080745;28;19924;-62
2023/03/23 05:51:12;;;;;;;;;;;;;;;12.61;53.55;95190.59;5089812;28;19920;-62
2023/03/23 05:53:41;;;;;;;;;;;;;;;12.75;52.48;95183.00;5072902;28;20275;-66
2023/03/23 05:56:08;;;;;;;;;;;;;;;12.78;52.78;95182.47;5086202;28;19970;-64
2023/03/23 05:58:49;;;;;;;;;;;;;;;12.87;52.03;95194.84;5084796;28;19981;-65
2023/03/23 06:01:16;;;;;;;;;;;;;;;12.75;52.91;95194.31;5086349;28;19927;-63
2023/03/23 06:03:41;;;;;;;;;;;;;;;12.93;52.30;95191.19;5086075;28;20018;-63
2023/03/23 06:06:18;;;;;;;;;;;;;;;12.90;52.38;95196.16;5085610;28;19928;-63
2023/03/23 06:08:50;;;;;;;;;;;;;;;12.95;52.39;95199.59;5086389;28;20292;-60
2023/03/23 06:11:21;;;;;;;;;;;;;;;12.90;52.74;95196.94;5086339;28;20338;-62
2023/03/23 06:14:05;;;;;;;;;;;;;;;12.90;52.44;95191.69;5086063;28;19931;-61
2023/03/23 06:16:31;;;;;;;;;;;;;;;13.08;51.87;95198.31;5087763;28;19924;-62
2023/03/23 06:19:00;;;;;;;;;;;;;;;13.06;51.84;95195.91;5089067;28;19927;-62
2023/03/23 06:21:39;;;;;;;;;;;;;;;13.35;51.65;95203.28;5089711;28;19920;-64
2023/03/23 06:24:32;;;;;;;;;;;;;;;13.41;51.71;95197.75;5074631;28;19993;-62
2023/03/23 06:26:59;;;;;;;;;;;;;;;13.48;51.75;95194.84;5087620;28;20304;-61
2023/03/23 06:29:25;;;;;;;;;;;;;;;13.41;51.67;95196.97;5088762;28;19927;-62
2023/03/23 06:31:57;;;;;;;;;;;;;;;13.50;51.66;95200.66;5088000;28;19920;-62
2023/03/23 06:34:25;;;;;;;;;;;;;;;13.73;51.65;95190.34;5088625;28;19920;-60
2023/03/23 06:37:09;;;;;;;;;;;;;;;13.64;50.90;95201.66;5078856;28;20484;-61
2023/03/23 06:39:42;;;;;;;;;;;;;;;13.92;51.31;95199.22;5089330;28;19924;-62
2023/03/23 06:42:22;;;;;;;;;;;;;;;13.88;50.90;95192.13;5086039;28;19924;-62
2023/03/23 06:44:56;;;;;;;;;;;;;;;14.16;50.67;95202.84;5086226;28;19920;-62
2023/03/23 06:47:23;;;;;;;;;;;;;;;14.13;50.93;95203.38;5085675;28;19924;-61
2023/03/23 06:49:49;;;;;;;;;;;;;;;14.22;50.37;95209.66;5087588;28;19920;-61
2023/03/23 06:52:23;;;;;;;;;;;;;;;14.27;50.39;95216.78;5086870;28;19920;-62
2023/03/23 06:54:50;;;;;;;;;;;;;;;14.33;50.31;95213.06;5088400;28;19920;-60
2023/03/23 06:57:18;;;;;;;;;;;;;;;14.16;51.93;95217.84;5087983;28;20765;-61
2023/03/23 06:59:46;;;;;;;;;;;;;;;14.41;51.15;95215.16;5105631;28;20360;-61
2023/03/23 07:02:13;;;;;;;;;;;;;;;14.50;51.00;95216.16;5088575;28;19920;-62
2023/03/23 07:04:41;;;;;;;;;;;;;;;14.20;51.29;95217.06;5088070;28;19920;-62
2023/03/23 07:07:26;;;;;;;;;;;;;;;14.09;50.88;95214.72;5087915;28;20387;-60
2023/03/23 07:10:10;;;;;;;;;;;;;;;13.86;51.22;95216.13;5088492;28;19920;-59
2023/03/23 07:12:38;;;;;;;;;;;;;;;14.22;50.54;95208.88;5088177;28;20329;-62
2023/03/23 07:15:09;;;;;;;;;;;;;;;14.54;50.21;95211.94;5088686;28;20015;-60
2023/03/23 07:17:35;;;;;;;;;;;;;;;14.75;50.25;95209.94;5087929;28;19942;-62
2023/03/23 07:20:26;;;;;;;;;;;;;;;14.59;50.53;95209.25;5105184;28;19920;-61
2023/03/23 07:22:53;;;;;;;;;;;;;;;13.97;51.13;95212.41;5082255;28;19920;-63
2023/03/23 07:25:42;;;;;;;;;;;;;;;14.56;50.67;95212.41;5078106;28;19920;-61
2023/03/23 07:28:12;;;;;;;;;;;;;;;14.83;50.51;95215.47;5092987;28;19919;-61
2023/03/23 07:30:38;;;;;;;;;;;;;;;14.84;49.39;95213.59;5091946;28;19928;-61
2023/03/23 07:33:05;;;;;;;;;;;;;;;14.89;49.26;95214.34;5109217;28;19927;-62
2023/03/23 07:35:31;;;;;;;;;;;;;;;14.97;49.45;95212.97;5092566;28;19920;-60
2023/03/23 07:38:01;;;;;;;;;;;;;;;15.17;49.28;95215.47;5091552;28;20371;-61
2023/03/23 07:40:28;;;;;;;;;;;;;;;14.55;49.29;95221.41;5075807;28;20027;-60
2023/03/23 07:43:01;;;;;;;;;;;;;;;14.78;49.38;95218.09;5091766;28;19928;-61
2023/03/23 07:45:47;;;;;;;;;;;;;;;14.79;48.14;95218.91;5092813;28;19923;-61
2023/03/23 07:48:14;;;;;;;;;;;;;;;14.75;48.50;95221.31;5092639;28;20018;-59
2023/03/23 07:50:40;;;;;;;;;;;;;;;14.96;48.66;95225.38;5093017;28;20023;-61
2023/03/23 07:53:10;;;;;;;;;;;;;;;15.55;48.17;95222.56;5091582;28;20632;-61
2023/03/23 07:55:37;;;;;;;;;;;;;;;15.74;48.22;95225.31;5092337;28;19930;-60
2023/03/23 07:58:18;;;;;;;;;;;;;;;15.56;47.51;95223.38;5091640;28;20379;-61
2023/03/23 08:00:48;;;;;;;;;;;;;;;15.57;47.75;95231.00;5108748;28;19977;-61
2023/03/23 08:03:15;;;;;;;;;;;;;;;16.11;47.20;95225.47;5091338;28;19970;-62
2023/03/23 08:06:00;;;;;;;;;;;;;;;16.40;47.07;95228.81;5092987;28;20002;-63
2023/03/23 08:08:46;;;;;;;;;;;;;;;16.06;46.67;95228.13;5051880;28;19981;-61
2023/03/23 08:11:34;;;;;;;;;;;;;;;15.45;46.38;95227.16;5080906;28;20074;-61
2023/03/23 08:14:21;;;;;;;;;;;;;;;15.84;46.60;95230.47;5093317;28;19931;-61
2023/03/23 08:17:16;;;;;;;;;;;;;;;16.40;45.83;95223.53;5078570;28;19928;-60
2023/03/23 08:19:55;;;;;;;;;;;;;;;16.63;45.20;95222.72;5092381;28;19977;-61
2023/03/23 08:22:38;;;;;;;;;;;;;;;16.88;45.01;95219.72;5091197;28;20401;-61
2023/03/23 08:25:17;;;;;;;;;;;;;;;16.93;44.71;95210.94;5091932;28;20334;-60
2023/03/23 08:28:04;;;;;;;;;;;;;;;16.99;44.26;95210.56;5092606;28;19927;-60
2023/03/23 08:31:09;;;;;;;;;;;;;;;17.21;43.40;95215.28;5060352;28;19925;-60
2023/03/23 08:34:05;;;;;;;;;;;;;;;16.83;43.08;95217.16;5096767;28;19924;-61
2023/03/23 08:36:47;;;;;;;;;;;;;;;17.20;43.17;95206.56;5093095;28;19928;-60
2023/03/23 08:39:24;;;;;;;;;;;;;;;17.56;44.07;95204.13;5078093;28;20015;-61
2023/03/23 08:42:13;;;;;;;;;;;;;;;17.88;42.64;95206.75;5062959;28;20024;-61
2023/03/23 08:44:57;;;;;;;;;;;;;;;17.95;42.47;95206.38;5093842;28;19934;-61
2023/03/23 08:47:42;;;;;;;;;;;;;;;18.00;41.22;95204.41;5092673;28;19945;-61
2023/03/23 08:50:22;;;;;;;;;;;;;;;18.04;39.14;95200.09;5093439;28;19924;-61
2023/03/23 08:52:49;;;;;;;;;;;;;;;18.24;39.87;95198.91;5093369;28;19930;-61
2023/03/23 08:55:28;;;;;;;;;;;;;;;18.16;39.62;95202.25;5082322;28;20283;-61
2023/03/23 08:58:29;;;;;;;;;;;;;;;18.27;38.21;95198.31;5010354;28;20420;-61
2023/03/23 09:01:01;;;;;;;;;;;;;;;18.51;37.23;95204.22;5042184;28;19940;-63
2023/03/23 09:03:42;;;;;;;;;;;;;;;18.59;37.65;95206.19;5052376;28;19927;-62
2023/03/23 09:06:27;;;;;;;;;;;;;;;18.60;38.07;95197.13;5051282;28;20038;-61
2023/03/23 09:08:58;;;;;;;;;;;;;;;18.69;36.44;95200.66;5051836;28;19924;-61
2023/03/23 09:11:24;;;;;;;;;;;;;;;18.09;35.57;95199.19;5052253;28;19920;-62
2023/03/23 09:13:50;;;;;;;;;;;;;;;18.54;36.72;95187.69;5052961;28;20312;-61
2023/03/23 09:16:17;;;;;;;;;;;;;;;18.82;36.37;95204.34;5053496;28;19924;-60
2023/03/23 09:18:43;;;;;;;;;;;;;;;18.81;36.29;95200.91;5052435;28;20007;-62
2023/03/23 09:21:10;;;;;;;;;;;;;;;19.01;35.92;95197.81;5052058;28;19920;-61
2023/03/23 09:23:35;;;;;;;;;;;;;;;19.40;35.97;95193.72;5050452;28;20346;-61
2023/03/23 09:26:02;;;;;;;;;;;;;;;19.53;35.32;95188.38;5051452;28;19920;-61
2023/03/23 09:28:27;;;;;;;;;;;;;;;19.60;34.83;95198.56;5051724;28;19988;-60
2023/03/23 09:30:57;;;;;;;;;;;;;;;20.06;34.90;95191.75;5051315;28;20342;-61
2023/03/23 09:33:23;;;;;;;;;;;;;;;19.48;33.79;95195.69;5051705;28;19928;-62
2023/03/23 09:35:49;;;;;;;;;;;;;;;19.55;33.69;95185.41;5051013;28;20010;-61
2023/03/23 09:38:14;;;;;;;;;;;;;;;20.09;33.14;95187.69;5051228;28;20320;-61
2023/03/23 09:40:47;;;;;;;;;;;;;;;20.07;33.78;95176.59;5051413;28;19927;-62
2023/03/23 09:43:22;;;;;;;;;;;;;;;19.88;32.17;95181.34;5050857;28;20225;-61
2023/03/23 09:45:48;;;;;;;;;;;;;;;19.81;33.46;95178.34;5050682;28;19928;-61
2023/03/23 09:48:16;;;;;;;;;;;;;;;19.92;33.26;95169.81;5050694;28;20316;-61
2023/03/23 09:50:43;;;;;;;;;;;;;;;20.45;33.39;95177.69;5050842;28;19921;-60
2023/03/23 09:53:24;;;;;;;;;;;;;;;20.27;33.58;95170.75;5051324;28;19921;-61
2023/03/23 09:55:51;;;;;;;;;;;;;;;20.85;33.37;95165.81;5051189;28;19982;-63
2023/03/23 09:58:20;;;;;;;;;;;;;;;20.75;31.33;95166.13;5074950;28;19920;-61
2023/03/23 10:00:48;;;;;;;;;;;;;;;18.66;32.34;95180.03;5090702;28;19930;-60
2023/03/23 10:03:15;;;;;;;;;;;;;;;19.73;32.44;95176.41;5090863;28;19920;-62
2023/03/23 10:05:45;;;;;;;;;;;;;;;20.51;32.66;95163.09;5090646;28;20000;-61
2023/03/23 10:08:13;;;;;;;;;;;;;;;20.57;31.24;95164.53;5077884;28;20009;-61
2023/03/23 10:10:41;;;;;;;;;;;;;;;20.02;32.64;95163.41;5090337;28;19919;-61
2023/03/23 10:13:19;;;;;;;;;;;;;;;19.98;32.68;95162.47;5090540;28;19923;-60
2023/03/23 10:15:45;;;;;;;;;;;;;;;20.45;32.08;95160.91;5088967;28;19977;-61
2023/03/23 10:18:36;;;;;;;;;;;;;;;20.88;31.95;95162.53;5090354;28;19924;-61
2023/03/23 10:21:03;;;;;;;;;;;;;;;19.71;31.64;95157.31;5077085;28;19920;-61
2023/03/23 10:23:55;;;;;;;;;;;;;;;20.70;31.90;95152.97;5090787;28;19920;-61
2023/03/23 10:26:20;;;;;;;;;;;;;;;20.24;30.88;95155.38;5086241;28;19923;-61
2023/03/23 10:28:50;;;;;;;;;;;;;;;21.11;30.15;95147.22;5089866;28;20397;-61
2023/03/23 10:31:45;;;;;;;;;;;;;;;21.29;31.18;95147.97;5090044;28;19980;-60
2023/03/23 10:34:17;;;;;;;;;;;;;;;20.96;30.36;95145.78;5066610;28;19924;-61
2023/03/23 10:36:55;;;;;;;;;;;;;;;21.05;30.90;95146.59;5089532;28;19969;-60
2023/03/23 10:39:23;;;;;;;;;;;;;;;21.22;31.00;95142.34;5090857;28;20247;-61
2023/03/23 10:41:49;;;;;;;;;;;;;;;21.58;31.14;95140.06;5090168;28;19926;-61
2023/03/23 10:44:16;;;;;;;;;;;;;;;21.68;31.57;95140.50;5090562;28;20014;-61
2023/03/23 10:47:02;;;;;;;;;;;;;;;21.35;30.44;95141.38;5090212;28;19924;-61
2023/03/23 10:49:33;;;;;;;;;;;;;;;20.42;30.43;95138.34;5089723;28;19928;-60
2023/03/23 10:52:07;;;;;;;;;;;;;;;20.18;30.72;95146.00;5089775;28;19919;-61
2023/03/23 10:54:43;;;;;;;;;;;;;;;20.75;31.19;95139.50;5090107;28;19967;-61
2023/03/23 10:57:38;;;;;;;;;;;;;;;21.17;31.62;95131.84;5089233;28;19920;-60
2023/03/23 11:00:06;;;;;;;;;;;;;;;21.65;31.51;95129.69;5062629;28;19920;-61
2023/03/23 11:02:32;;;;;;;;;;;;;;;22.15;31.52;95127.94;5089692;28;19924;-60
2023/03/23 11:05:03;;;;;;;;;;;;;;;21.67;29.43;95132.81;5090563;28;20020;-60
2023/03/23 11:07:32;;;;;;;;;;;;;;;21.44;29.44;95128.81;5089683;28;20484;-61
2023/03/23 11:10:06;;;;;;;;;;;;;;;21.83;30.25;95125.88;5090433;28;20024;-62
2023/03/23 11:12:33;;;;;;;;;;;;;;;22.12;30.19;95123.22;5089980;28;20588;-61
2023/03/23 11:15:17;;;;;;;;;;;;;;;21.61;29.77;95129.53;5089711;28;20018;-60
2023/03/23 11:17:43;;;;;;;;;;;;;;;21.08;30.04;95115.84;5088215;28;19920;-61
2023/03/23 11:20:10;;;;;;;;;;;;;;;20.32;30.43;95122.69;5090606;28;19931;-60
2023/03/23 11:23:01;;;;;;;;;;;;;;;20.56;30.44;95109.72;5080964;28;19931;-62
2023/03/23 11:25:27;;;;;;;;;;;;;;;21.03;30.53;95108.81;5090680;28;19943;-62
2023/03/23 11:27:53;;;;;;;;;;;;;;;21.28;30.22;95107.19;5089306;28;19920;-61
2023/03/23 11:30:24;;;;;;;;;;;;;;;20.88;29.43;95106.59;5090119;28;19931;-60
2023/03/23 11:32:50;;;;;;;;;;;;;;;20.97;29.57;95104.69;5089481;28;19946;-61
2023/03/23 11:35:25;;;;;;;;;;;;;;;20.97;29.37;95087.94;5089602;28;20031;-61
2023/03/23 11:37:53;;;;;;;;;;;;;;;21.28;29.74;95087.75;5089677;28;19924;-62
2023/03/23 11:40:21;;;;;;;;;;;;;;;21.09;30.04;95088.88;5089998;28;19924;-60
2023/03/23 11:42:57;;;;;;;;;;;;;;;21.78;29.77;95080.69;5089103;28;19924;-62
2023/03/23 11:45:35;;;;;;;;;;;;;;;22.47;29.23;95081.09;5089226;28;20398;-61
2023/03/23 11:48:11;;;;;;;;;;;;;;;22.51;28.87;95082.00;5088850;28;19973;-61
2023/03/23 11:50:53;;;;;;;;;;;;;;;23.18;29.45;95079.88;5090822;28;19923;-64
2023/03/23 11:53:25;;;;;;;;;;;;;;;21.56;28.20;95073.72;5090222;28;19959;-60
2023/03/23 11:55:56;;;;;;;;;;;;;;;22.47;29.97;95076.53;5089559;28;19931;-61
2023/03/23 11:58:22;;;;;;;;;;;;;;;23.41;29.22;95083.00;5089280;28;19974;-62
2023/03/23 12:00:58;;;;;;;;;;;;;;;23.39;27.57;95074.53;5089359;28;19969;-61
2023/03/23 12:03:28;;;;;;;;;;;;;;;23.20;27.23;95071.53;5076986;28;20393;-60
2023/03/23 12:05:59;;;;;;;;;;;;;;;23.04;26.67;95069.50;5088639;28;19920;-61
2023/03/23 12:08:39;;;;;;;;;;;;;;;22.74;26.88;95068.03;5089775;28;19927;-61
2023/03/23 12:11:20;;;;;;;;;;;;;;;23.44;27.03;95060.94;5090297;28;19927;-63
2023/03/23 12:13:55;;;;;;;;;;;;;;;23.74;26.26;95056.97;5093295;28;19924;-60
2023/03/23 12:16:24;;;;;;;;;;;;;;;23.13;26.49;95064.84;5092661;28;19924;-61
2023/03/23 12:19:08;;;;;;;;;;;;;;;23.52;26.64;95057.38;5092886;28;19927;-62
2023/03/23 12:21:56;;;;;;;;;;;;;;;23.60;25.68;95048.47;5092555;28;19924;-63
2023/03/23 12:24:27;;;;;;;;;;;;;;;24.39;25.78;95048.69;5093397;28;20325;-61
2023/03/23 12:26:57;;;;;;;;;;;;;;;24.58;25.51;95050.75;5090914;28;20435;-61
2023/03/23 12:29:26;;;;;;;;;;;;;;;24.29;26.20;95049.13;5092954;28;20068;-61
2023/03/23 12:32:11;;;;;;;;;;;;;;;24.62;25.36;95047.03;5092349;28;20430;-60
2023/03/23 12:34:41;;;;;;;;;;;;;;;24.83;25.76;95036.97;5040825;28;20185;-62
2023/03/23 12:37:20;;;;;;;;;;;;;;;24.94;25.99;95043.38;5079369;28;19992;-61
2023/03/23 12:39:48;;;;;;;;;;;;;;;24.40;25.71;95038.72;5090807;28;20314;-63
2023/03/23 12:42:33;;;;;;;;;;;;;;;25.12;26.48;95043.09;5092062;28;19920;-63
2023/03/23 12:45:19;;;;;;;;;;;;;;;25.53;25.47;95034.59;5092820;28;19970;-63
2023/03/23 12:47:44;;;;;;;;;;;;;;;25.26;24.72;95032.72;5092041;28;19920;-61
2023/03/23 12:50:28;;;;;;;;;;;;;;;25.71;24.24;95022.41;5092519;28;19977;-61
2023/03/23 12:53:13;;;;;;;;;;;;;;;25.14;26.07;95024.75;5092147;28;19920;-60
2023/03/23 12:55:39;;;;;;;;;;;;;;;25.24;25.90;95026.91;5092380;28;19920;-61
2023/03/23 12:58:04;;;;;;;;;;;;;;;25.14;24.52;95025.53;5091760;28;19926;-61
2023/03/23 13:00:34;;;;;;;;;;;;;;;25.53;25.03;95021.94;5092135;28;19927;-61
2023/03/23 13:03:03;;;;;;;;;;;;;;;25.63;25.22;95020.66;5090381;28;19920;-61
2023/03/23 13:05:41;;;;;;;;;;;;;;;25.73;25.42;95025.53;5092312;28;19920;-62
2023/03/23 13:08:19;;;;;;;;;;;;;;;25.79;25.16;95021.41;5078189;28;19919;-61
2023/03/23 13:10:47;;;;;;;;;;;;;;;25.98;23.63;95026.88;5078350;28;19924;-62
2023/03/23 13:13:23;;;;;;;;;;;;;;;25.98;23.91;95016.88;5092450;28;19924;-61